Time;durP1;ratioP1;P1;durP2;ratioP2;P2;SDS_P1;SDS_P2;PMS_P1;PMS_P2;Temp;Humidity;BMP_temperature;BMP_pressure;BME280_temperature;BME280_humidity;BME280_pressure;Samples;Min_cycle;Max_cycle;Signal;HPM_P1;HPM_P2
2021/07/29 00:01:30;;;;;;;6.45;1.50;;;13.10;77.70;;;;;;5066912;28;20067;-76
2021/07/29 00:03:58;;;;;;;6.78;1.48;;;13.00;77.70;;;;;;5054816;28;20495;-76
2021/07/29 00:06:32;;;;;;;4.97;1.52;;;13.00;77.70;;;;;;5086320;28;20040;-76
2021/07/29 00:09:01;;;;;;;8.45;1.40;;;13.10;77.90;;;;;;5072683;28;20044;-76
2021/07/29 00:11:29;;;;;;;5.88;1.35;;;13.10;77.90;;;;;;5071334;28;20044;-77
2021/07/29 00:13:58;;;;;;;8.43;1.75;;;13.10;77.90;;;;;;5069980;28;20587;-77
2021/07/29 00:16:28;;;;;;;2.10;0.90;;;13.10;78.00;;;;;;5072207;28;20480;-78
2021/07/29 00:19:08;;;;;;;2.75;1.48;;;13.20;78.00;;;;;;5070582;28;20494;-77
2021/07/29 00:21:38;;;;;;;6.60;1.10;;;13.20;77.80;;;;;;5087208;28;20052;-78
2021/07/29 00:24:07;;;;;;;3.42;1.20;;;13.20;77.90;;;;;;5072223;28;20407;-77
2021/07/29 00:26:35;;;;;;;4.85;1.50;;;13.20;78.00;;;;;;5071630;28;20064;-78
2021/07/29 00:29:03;;;;;;;5.93;1.15;;;13.20;77.90;;;;;;5072026;28;20056;-78
2021/07/29 00:31:32;;;;;;;2.88;1.05;;;13.10;77.80;;;;;;5071059;28;20495;-77
2021/07/29 00:34:01;;;;;;;6.00;1.00;;;13.10;77.90;;;;;;5054372;28;20233;-78
2021/07/29 00:36:29;;;;;;;3.78;1.00;;;13.10;78.00;;;;;;5064767;28;20044;-77
2021/07/29 00:39:01;;;;;;;5.35;1.08;;;13.10;78.00;;;;;;5034744;28;20044;-78
2021/07/29 00:41:29;;;;;;;2.35;0.90;;;13.00;78.20;;;;;;5065653;28;20052;-78
2021/07/29 00:44:04;;;;;;;5.13;1.02;;;13.00;78.30;;;;;;5053943;28;20463;-77
2021/07/29 00:46:33;;;;;;;3.13;1.02;;;13.00;78.40;;;;;;5069234;28;20049;-78
2021/07/29 00:49:03;;;;;;;3.22;0.80;;;12.90;78.60;;;;;;5071528;28;20049;-77
2021/07/29 00:51:33;;;;;;;1.67;0.77;;;12.90;78.90;;;;;;5071206;28;20052;-77
2021/07/29 00:54:04;;;;;;;3.60;0.70;;;12.80;79.20;;;;;;5051899;28;20415;-78
2021/07/29 00:56:33;;;;;;;1.60;0.60;;;12.80;79.70;;;;;;5049860;28;20060;-78
2021/07/29 00:59:00;;;;;;;4.30;0.70;;;12.80;80.00;;;;;;5051976;28;20056;-79
2021/07/29 01:01:28;;;;;;;2.88;0.63;;;12.80;80.30;;;;;;5066868;28;20051;-76
2021/07/29 01:03:56;;;;;;;3.38;0.60;;;12.70;80.50;;;;;;5070571;28;20049;-77
2021/07/29 01:06:24;;;;;;;1.25;0.40;;;12.70;80.80;;;;;;5070728;28;20044;-78
2021/07/29 01:09:08;;;;;;;3.40;0.57;;;12.70;80.90;;;;;;5069524;28;20044;-78
2021/07/29 01:11:43;;;;;;;3.63;0.90;;;12.60;81.10;;;;;;5069614;28;20055;-78
2021/07/29 01:14:11;;;;;;;3.05;0.75;;;12.60;81.30;;;;;;5062704;28;20036;-78
2021/07/29 01:16:39;;;;;;;1.92;0.77;;;12.60;81.50;;;;;;5050630;28;20052;-77
2021/07/29 01:19:08;;;;;;;3.58;0.80;;;12.60;81.60;;;;;;5051592;28;20049;-77
2021/07/29 01:21:55;;;;;;;3.55;0.90;;;12.60;81.60;;;;;;5068696;28;20044;-77
2021/07/29 01:24:25;;;;;;;1.17;0.70;;;12.60;81.60;;;;;;5070124;28;20522;-77
2021/07/29 01:26:53;;;;;;;3.25;0.80;;;12.60;81.70;;;;;;5071490;28;20055;-76
2021/07/29 01:29:21;;;;;;;3.67;0.77;;;12.50;81.90;;;;;;5071482;28;20495;-76
2021/07/29 01:31:49;;;;;;;6.07;1.02;;;12.50;82.10;;;;;;5070180;28;20056;-76
2021/07/29 01:34:17;;;;;;;2.17;0.80;;;12.50;82.50;;;;;;5071561;28;20059;-76
2021/07/29 01:36:45;;;;;;;2.47;0.82;;;12.40;82.80;;;;;;5070807;28;20051;-76
2021/07/29 01:39:14;;;;;;;2.00;0.82;;;12.40;83.00;;;;;;5080899;28;20041;-77
2021/07/29 01:41:42;;;;;;;2.33;0.82;;;12.40;83.30;;;;;;5069351;28;20052;-77
2021/07/29 01:44:09;;;;;;;1.65;0.70;;;12.40;83.30;;;;;;5070072;28;20036;-77
2021/07/29 01:46:37;;;;;;;2.67;0.70;;;12.40;83.40;;;;;;5070966;28;20052;-77
2021/07/29 01:49:05;;;;;;;3.13;0.80;;;12.40;83.50;;;;;;5069977;28;20415;-76
2021/07/29 01:51:33;;;;;;;5.47;0.90;;;12.40;83.50;;;;;;5070562;28;20067;-76
2021/07/29 01:54:02;;;;;;;2.72;0.90;;;12.50;83.60;;;;;;5071201;28;20041;-76
2021/07/29 01:56:31;;;;;;;4.22;0.90;;;12.50;83.50;;;;;;5070094;28;20130;-76
2021/07/29 01:59:04;;;;;;;2.42;1.00;;;12.50;83.60;;;;;;5072161;28;20396;-77
2021/07/29 02:01:32;;;;;;;1.83;0.85;;;12.50;83.60;;;;;;5071686;28;20071;-77
2021/07/29 02:04:00;;;;;;;2.28;0.73;;;12.50;83.60;;;;;;5073902;28;20044;-76
2021/07/29 02:06:28;;;;;;;2.35;0.88;;;12.50;83.70;;;;;;5072212;28;20056;-76
2021/07/29 02:08:56;;;;;;;3.58;1.10;;;12.40;83.80;;;;;;5073942;28;20044;-76
2021/07/29 02:11:29;;;;;;;3.92;0.70;;;12.40;83.80;;;;;;5074198;28;20044;-76
2021/07/29 02:13:57;;;;;;;;;;;12.40;83.70;;;;;;5074669;28;20051;-76
2021/07/29 02:16:26;;;;;;;3.25;0.77;;;12.40;83.60;;;;;;5073205;28;19928;-76
2021/07/29 02:18:53;;;;;;;4.85;1.40;;;12.40;83.50;;;;;;5067332;28;20056;-76
2021/07/29 02:21:21;;;;;;;2.15;1.00;;;12.40;83.70;;;;;;5069817;28;20037;-77
2021/07/29 02:23:49;;;;;;;4.03;1.20;;;12.30;83.70;;;;;;5074817;28;20044;-77
2021/07/29 02:26:17;;;;;;;1.83;1.05;;;12.30;83.90;;;;;;5073179;28;20071;-77
2021/07/29 02:28:47;;;;;;;5.88;1.20;;;12.30;84.00;;;;;;5074281;28;20041;-76
2021/07/29 02:31:18;;;;;;;3.53;1.20;;;12.30;84.20;;;;;;5072323;28;20041;-77
2021/07/29 02:33:45;;;;;;;5.07;1.30;;;12.20;84.40;;;;;;5072990;28;20048;-77
2021/07/29 02:36:14;;;;;;;4.30;1.30;;;12.10;84.50;;;;;;5071595;28;20052;-77
2021/07/29 02:38:42;;;;;;;5.05;1.60;;;12.00;84.70;;;;;;5072016;28;20047;-77
2021/07/29 02:41:10;;;;;;;2.22;1.42;;;12.00;84.80;;;;;;5060053;28;20051;-77
2021/07/29 02:43:37;;;;;;;3.05;1.42;;;12.00;84.90;;;;;;5072891;28;20281;-77
2021/07/29 02:46:06;;;;;;;4.15;1.42;;;12.00;84.90;;;;;;5071573;28;20059;-76
2021/07/29 02:48:34;;;;;;;2.60;1.20;;;11.90;85.10;;;;;;5073342;28;20044;-76
2021/07/29 02:51:02;;;;;;;4.40;1.70;;;11.80;85.20;;;;;;5072538;28;20051;-76
2021/07/29 02:53:33;;;;;;;4.03;1.42;;;11.80;85.30;;;;;;5067332;28;20033;-77
2021/07/29 02:56:02;;;;;;;3.47;1.70;;;11.80;85.40;;;;;;5073076;28;20048;-77
2021/07/29 02:58:29;;;;;;;3.10;1.33;;;11.70;85.50;;;;;;5072970;28;20482;-76
2021/07/29 03:00:57;;;;;;;3.47;1.50;;;11.60;85.70;;;;;;5038002;28;20048;-77
2021/07/29 03:03:27;;;;;;;5.25;1.75;;;11.50;85.90;;;;;;5089172;28;20487;-76
2021/07/29 03:05:55;;;;;;;3.33;1.38;;;11.50;86.10;;;;;;5072851;28;20071;-76
2021/07/29 03:08:22;;;;;;;2.90;1.65;;;11.40;86.20;;;;;;5073257;28;20144;-76
2021/07/29 03:10:50;;;;;;;1.58;1.27;;;11.40;86.40;;;;;;5071937;28;20414;-76
2021/07/29 03:13:18;;;;;;;3.33;1.45;;;11.30;86.60;;;;;;5070943;28;20061;-76
2021/07/29 03:15:46;;;;;;;3.35;1.60;;;11.30;86.70;;;;;;5072837;28;20059;-76
2021/07/29 03:18:14;;;;;;;5.03;1.60;;;11.30;86.90;;;;;;5073217;28;20048;-76
2021/07/29 03:20:42;;;;;;;3.25;1.38;;;11.30;87.10;;;;;;5072894;28;20045;-76
2021/07/29 03:23:10;;;;;;;4.90;1.60;;;11.30;87.20;;;;;;5088716;28;20044;-76
2021/07/29 03:25:38;;;;;;;5.40;1.75;;;11.30;87.10;;;;;;5071588;28;20056;-76
2021/07/29 03:28:05;;;;;;;3.00;1.60;;;11.30;87.10;;;;;;5072720;28;20044;-75
2021/07/29 03:30:33;;;;;;;3.72;1.80;;;11.20;87.20;;;;;;5073582;28;20055;-76
2021/07/29 03:33:02;;;;;;;5.03;1.80;;;11.20;87.20;;;;;;5072842;28;20040;-76
2021/07/29 03:35:30;;;;;;;5.82;1.77;;;11.20;87.30;;;;;;5072975;28;20048;-76
2021/07/29 03:37:57;;;;;;;4.70;1.70;;;11.20;87.30;;;;;;5072830;28;20049;-76
2021/07/29 03:40:25;;;;;;;5.45;1.88;;;11.20;87.30;;;;;;5071569;28;20060;-76
2021/07/29 03:42:52;;;;;;;5.65;1.45;;;11.20;87.20;;;;;;5071784;28;20056;-76
2021/07/29 03:45:20;;;;;;;4.45;1.40;;;11.20;87.20;;;;;;5072543;28;20045;-76
2021/07/29 03:47:48;;;;;;;4.20;1.70;;;11.20;87.10;;;;;;5072441;28;20052;-76
2021/07/29 03:50:16;;;;;;;2.15;1.25;;;11.20;87.10;;;;;;5071052;28;20036;-77
2021/07/29 03:52:45;;;;;;;4.45;1.58;;;11.20;87.20;;;;;;5071613;28;20059;-77
2021/07/29 03:55:13;;;;;;;6.63;1.63;;;11.20;87.00;;;;;;5071343;28;20443;-77
2021/07/29 03:57:40;;;;;;;3.67;1.70;;;11.20;87.10;;;;;;5071416;28;20071;-77
2021/07/29 04:00:10;;;;;;;2.22;1.45;;;11.10;87.00;;;;;;5071586;28;20063;-78
2021/07/29 04:02:41;;;;;;;5.38;1.80;;;11.10;87.10;;;;;;5072464;28;20075;-77
2021/07/29 04:05:10;;;;;;;7.75;1.77;;;11.10;87.10;;;;;;5070871;28;20040;-77
2021/07/29 04:07:37;;;;;;;3.90;1.60;;;11.00;87.30;;;;;;5073171;28;20478;-77
2021/07/29 04:10:06;;;;;;;4.35;1.60;;;11.00;87.50;;;;;;5072556;28;20488;-77
2021/07/29 04:12:33;;;;;;;3.72;1.50;;;11.00;87.60;;;;;;5069846;28;20097;-77
2021/07/29 04:15:02;;;;;;;1.85;1.40;;;11.00;87.60;;;;;;5071821;28;20029;-77
2021/07/29 04:17:30;;;;;;;7.82;1.80;;;11.00;87.60;;;;;;5072325;28;20048;-77
2021/07/29 04:19:59;;;;;;;6.72;1.65;;;11.00;87.70;;;;;;5071341;28;20499;-77
2021/07/29 04:22:27;;;;;;;3.60;1.38;;;11.00;87.60;;;;;;5071711;28;20432;-77
2021/07/29 04:24:58;;;;;;;5.05;1.95;;;11.10;87.60;;;;;;5071483;28;20045;-77
2021/07/29 04:27:26;;;;;;;6.70;1.63;;;11.10;87.60;;;;;;5069964;28;20056;-77
2021/07/29 04:29:54;;;;;;;3.90;1.58;;;11.00;87.50;;;;;;5068867;28;20044;-77
2021/07/29 04:32:22;;;;;;;1.63;1.50;;;11.00;87.60;;;;;;5069730;28;20040;-78
2021/07/29 04:34:52;;;;;;;6.82;1.70;;;11.00;87.50;;;;;;5067742;28;20051;-77
2021/07/29 04:37:20;;;;;;;5.53;2.00;;;11.00;87.50;;;;;;5055334;28;20048;-77
2021/07/29 04:39:47;;;;;;;5.70;1.42;;;11.00;87.50;;;;;;5070431;28;20040;-77
2021/07/29 04:42:15;;;;;;;3.42;1.65;;;11.00;87.60;;;;;;5071575;28;20036;-77
2021/07/29 04:44:43;;;;;;;4.70;1.50;;;11.00;87.50;;;;;;5085458;28;20496;-77
2021/07/29 04:47:15;;;;;;;4.25;1.42;;;11.00;87.40;;;;;;5072103;28;20036;-77
2021/07/29 04:49:42;;;;;;;2.90;1.35;;;11.00;87.40;;;;;;5071343;28;20388;-77
2021/07/29 04:52:10;;;;;;;5.20;1.70;;;11.00;87.20;;;;;;5071635;28;20403;-77
2021/07/29 04:54:38;;;;;;;3.28;1.45;;;11.00;87.10;;;;;;5070267;28;20438;-77
2021/07/29 04:57:06;;;;;;;3.80;1.58;;;11.00;87.10;;;;;;5087064;28;20415;-77
2021/07/29 04:59:36;;;;;;;2.13;1.42;;;11.00;87.10;;;;;;5070354;28;20534;-77
2021/07/29 05:02:03;;;;;;;4.53;1.30;;;11.00;87.00;;;;;;5070334;28;20045;-77
2021/07/29 05:04:32;;;;;;;5.20;1.50;;;11.00;87.00;;;;;;5070853;28;20052;-78
2021/07/29 05:07:00;;;;;;;5.30;1.70;;;11.00;86.80;;;;;;5071437;28;20071;-78
2021/07/29 05:09:27;;;;;;;3.10;2.03;;;11.10;86.60;;;;;;5071935;28;20045;-77
2021/07/29 05:11:55;;;;;;;5.28;1.80;;;11.20;86.50;;;;;;5069680;28;20049;-77
2021/07/29 05:14:23;;;;;;;4.95;1.60;;;11.30;86.20;;;;;;5071307;28;20607;-77
2021/07/29 05:16:51;;;;;;;4.97;1.73;;;11.30;86.00;;;;;;5071671;28;20052;-77
2021/07/29 05:19:19;;;;;;;3.97;1.40;;;11.40;85.90;;;;;;5071317;28;20052;-78
2021/07/29 05:21:46;;;;;;;7.68;1.80;;;11.50;85.60;;;;;;5070268;28;20056;-78
2021/07/29 05:24:14;;;;;;;6.85;1.50;;;11.50;85.50;;;;;;5069603;28;20055;-77
2021/07/29 05:26:45;;;;;;;6.60;1.35;;;11.60;85.40;;;;;;5070342;28;20052;-77
2021/07/29 05:29:12;;;;;;;3.28;1.55;;;11.70;85.40;;;;;;5053440;28;20044;-77
2021/07/29 05:31:41;;;;;;;5.78;1.60;;;11.70;85.40;;;;;;5069818;28;20060;-77
2021/07/29 05:34:10;;;;;;;2.75;1.70;;;11.70;85.40;;;;;;5071236;28;20484;-77
2021/07/29 05:36:38;;;;;;;2.40;1.80;;;11.70;85.40;;;;;;5073919;28;20426;-77
2021/07/29 05:39:06;;;;;;;6.75;1.95;;;11.80;85.40;;;;;;5074918;28;20407;-77
2021/07/29 05:41:34;;;;;;;4.65;1.60;;;11.80;85.40;;;;;;5073546;28;20049;-77
2021/07/29 05:44:01;;;;;;;3.22;1.50;;;11.90;85.20;;;;;;5073821;28;20087;-77
2021/07/29 05:46:29;;;;;;;3.65;1.40;;;12.00;85.10;;;;;;5074996;28;20051;-77
2021/07/29 05:48:57;;;;;;;3.22;1.50;;;12.00;85.10;;;;;;5073287;28;20055;-77
2021/07/29 05:51:24;;;;;;;6.65;1.95;;;12.00;85.00;;;;;;5073837;28;20049;-78
2021/07/29 05:53:52;;;;;;;4.20;1.25;;;12.00;84.90;;;;;;5068702;28;20063;-77
2021/07/29 05:56:20;;;;;;;5.40;1.52;;;12.00;85.00;;;;;;5074284;28;20044;-77
2021/07/29 05:58:47;;;;;;;3.38;1.40;;;12.00;84.90;;;;;;5075189;28;20052;-77
2021/07/29 06:01:15;;;;;;;5.53;1.30;;;12.10;84.80;;;;;;5074740;28;20052;-78
2021/07/29 06:03:43;;;;;;;5.32;1.20;;;12.20;84.80;;;;;;5073735;28;20063;-77
2021/07/29 06:06:10;;;;;;;5.20;1.17;;;12.30;84.50;;;;;;5073708;28;20048;-76
2021/07/29 06:08:38;;;;;;;3.95;1.30;;;12.30;84.20;;;;;;5072819;28;20053;-77
2021/07/29 06:11:09;;;;;;;4.47;1.83;;;12.40;83.90;;;;;;5088710;28;20048;-79
2021/07/29 06:13:37;;;;;;;5.32;1.40;;;12.50;83.80;;;;;;5084148;28;20059;-78
2021/07/29 06:16:09;;;;;;;4.40;1.50;;;12.60;83.60;;;;;;5072802;28;20049;-78
2021/07/29 06:18:42;;;;;;;6.30;1.83;;;12.70;83.40;;;;;;5072740;28;20049;-75
2021/07/29 06:21:10;;;;;;;6.50;1.58;;;12.80;82.70;;;;;;5073654;28;20051;-78
2021/07/29 06:23:42;;;;;;;14.52;1.35;;;12.80;82.30;;;;;;5070934;28;20056;-76
2021/07/29 06:26:10;;;;;;;4.50;1.10;;;12.90;82.00;;;;;;5074304;28;20040;-76
2021/07/29 06:28:39;;;;;;;7.18;1.10;;;13.00;81.70;;;;;;5072848;28;20053;-76
2021/07/29 06:31:08;;;;;;;5.65;1.15;;;13.10;80.80;;;;;;5072777;28;20053;-77
2021/07/29 06:33:36;;;;;;;3.30;1.27;;;13.20;80.50;;;;;;5072985;28;20044;-77
2021/07/29 06:36:04;;;;;;;17.10;1.92;;;13.30;79.90;;;;;;5072016;28;20041;-77
2021/07/29 06:38:33;;;;;;;3.25;1.30;;;13.30;79.80;;;;;;5072074;28;20057;-77
2021/07/29 06:41:05;;;;;;;4.55;1.40;;;13.40;78.90;;;;;;5071088;28;20142;-78
2021/07/29 06:43:34;;;;;;;1.80;0.88;;;13.50;78.20;;;;;;5072105;28;20048;-77
2021/07/29 06:46:04;;;;;;;3.60;1.00;;;13.50;78.10;;;;;;5065059;28;20045;-77
2021/07/29 06:48:32;;;;;;;3.65;1.23;;;13.70;77.40;;;;;;5052825;28;20052;-77
2021/07/29 06:51:05;;;;;;;4.25;1.05;;;13.70;77.00;;;;;;5053372;28;20044;-76
2021/07/29 06:53:35;;;;;;;4.10;1.20;;;13.80;77.30;;;;;;5065629;28;20048;-77
2021/07/29 06:56:04;;;;;;;8.90;1.23;;;13.80;77.10;;;;;;5071680;28;20049;-77
2021/07/29 06:58:33;;;;;;;4.18;0.88;;;13.90;76.20;;;;;;5073384;28;20052;-77
2021/07/29 07:01:05;;;;;;;2.38;0.55;;;13.90;76.10;;;;;;5073780;28;20047;-77
2021/07/29 07:03:34;;;;;;;2.53;0.75;;;14.00;75.40;;;;;;5073357;28;20044;-77
2021/07/29 07:06:04;;;;;;;2.63;0.80;;;14.10;74.60;;;;;;5073439;28;20048;-77
2021/07/29 07:08:32;;;;;;;1.08;0.50;;;14.10;74.70;;;;;;5073381;28;20055;-77
2021/07/29 07:11:00;;;;;;;6.57;1.10;;;14.20;73.70;;;;;;5039020;28;20044;-77
2021/07/29 07:13:28;;;;;;;7.93;1.23;;;14.20;74.20;;;;;;5071788;28;20052;-77
2021/07/29 07:15:56;;;;;;;1.38;0.60;;;14.30;74.50;;;;;;5071356;28;20037;-76
2021/07/29 07:18:24;;;;;;;3.65;0.65;;;14.30;73.30;;;;;;5071906;28;20044;-77
2021/07/29 07:20:52;;;;;;;5.07;1.10;;;14.30;73.60;;;;;;5073337;28;20036;-77
2021/07/29 07:23:19;;;;;;;4.70;0.90;;;14.40;73.20;;;;;;5062354;28;20053;-77
2021/07/29 07:25:49;;;;;;;5.22;0.55;;;14.50;73.40;;;;;;5071559;28;20048;-77
2021/07/29 07:28:17;;;;;;;1.65;0.63;;;14.60;72.30;;;;;;5071401;28;20543;-79
2021/07/29 07:30:45;;;;;;;3.53;0.80;;;14.60;71.20;;;;;;5067918;28;20036;-77
2021/07/29 07:33:12;;;;;;;2.20;0.55;;;14.50;71.70;;;;;;5072551;28;20045;-76
2021/07/29 07:35:40;;;;;;;6.28;1.00;;;14.50;72.30;;;;;;5073728;28;20380;-77
2021/07/29 07:38:08;;;;;;;5.78;1.50;;;14.60;72.10;;;;;;5093395;28;20047;-77
2021/07/29 07:40:37;;;;;;;6.15;0.80;;;14.70;72.80;;;;;;5071572;28;20044;-77
2021/07/29 07:43:04;;;;;;;1.92;0.47;;;14.70;72.60;;;;;;5071152;28;20491;-77
2021/07/29 07:45:33;;;;;;;10.82;0.95;;;14.80;71.20;;;;;;5062841;28;20045;-77
2021/07/29 07:48:04;;;;;;;6.05;1.10;;;14.80;71.70;;;;;;5070323;28;20049;-77
2021/07/29 07:50:42;;;;;;;7.88;1.08;;;14.90;71.90;;;;;;5054584;28;20047;-85
2021/07/29 07:53:12;;;;;;;2.72;0.55;;;15.00;72.10;;;;;;5038697;28;20499;-81
2021/07/29 07:55:40;;;;;;;1.73;0.75;;;15.00;71.70;;;;;;5054147;28;20045;-77
2021/07/29 07:58:07;;;;;;;8.95;0.95;;;15.10;70.90;;;;;;5069920;28;20051;-77
2021/07/29 08:00:35;;;;;;;5.40;0.82;;;15.20;71.20;;;;;;5051670;28;20052;-78
2021/07/29 08:03:03;;;;;;;2.03;0.73;;;15.20;69.40;;;;;;5051882;28;20411;-77
2021/07/29 08:05:31;;;;;;;9.70;1.50;;;15.20;70.20;;;;;;5033632;28;20053;-78
2021/07/29 08:08:00;;;;;;;7.38;1.10;;;15.30;70.40;;;;;;5051738;28;20041;-78
2021/07/29 08:10:28;;;;;;;5.20;0.80;;;15.30;70.80;;;;;;5052641;28;20048;-77
2021/07/29 08:12:56;;;;;;;3.58;0.88;;;15.40;69.80;;;;;;5050812;28;20527;-78
2021/07/29 08:15:24;;;;;;;2.25;0.70;;;15.50;69.80;;;;;;5052059;28;20056;-77
2021/07/29 08:17:52;;;;;;;3.42;0.80;;;15.60;69.40;;;;;;5026899;28;20056;-78
2021/07/29 08:20:24;;;;;;;2.42;0.50;;;15.70;69.90;;;;;;5037733;28;20407;-78
2021/07/29 08:22:53;;;;;;;5.45;0.65;;;15.80;69.20;;;;;;5021598;28;20052;-77
2021/07/29 08:25:22;;;;;;;7.53;0.70;;;15.80;66.50;;;;;;5051016;28;20479;-77
2021/07/29 08:27:52;;;;;;;6.07;1.02;;;15.90;67.10;;;;;;5050701;28;20057;-78
2021/07/29 08:30:20;;;;;;;2.17;0.50;;;15.90;67.00;;;;;;5050836;28;20052;-78
2021/07/29 08:32:48;;;;;;;23.08;1.40;;;16.00;67.50;;;;;;5050119;28;20049;-78
2021/07/29 08:35:16;;;;;;;5.00;1.15;;;16.00;66.60;;;;;;5065418;28;20044;-80
2021/07/29 08:37:48;;;;;;;5.43;1.05;;;16.20;67.00;;;;;;5051707;28;20045;-78
2021/07/29 08:40:18;;;;;;;3.17;0.82;;;16.30;65.90;;;;;;5061712;28;20048;-77
2021/07/29 08:42:48;;;;;;;2.50;0.57;;;16.40;65.70;;;;;;5050698;28;20048;-77
2021/07/29 08:45:16;;;;;;;7.32;0.90;;;16.60;65.80;;;;;;5059998;28;20041;-76
2021/07/29 08:47:46;;;;;;;14.27;1.10;;;16.60;65.50;;;;;;5070889;28;20055;-76
2021/07/29 08:50:14;;;;;;;12.38;1.20;;;16.70;65.50;;;;;;5070644;28;20403;-76
2021/07/29 08:52:41;;;;;;;4.32;0.73;;;16.70;65.50;;;;;;5070516;28;20059;-76
2021/07/29 08:55:09;;;;;;;5.70;1.00;;;16.80;65.60;;;;;;5071258;28;20567;-76
2021/07/29 08:57:42;;;;;;;5.63;0.90;;;16.80;65.10;;;;;;5070120;28;20048;-76
2021/07/29 09:00:11;;;;;;;8.82;1.27;;;16.80;65.00;;;;;;5053653;28;20083;-76
2021/07/29 09:02:39;;;;;;;1.52;0.60;;;16.80;64.40;;;;;;5069601;28;20051;-75
2021/07/29 09:05:10;;;;;;;3.63;0.80;;;16.80;64.10;;;;;;5071298;28;20045;-75
2021/07/29 09:07:39;;;;;;;1.40;0.50;;;16.80;62.70;;;;;;5087386;28;20060;-76
2021/07/29 09:10:24;;;;;;;2.53;1.23;;;16.90;62.10;;;;;;5073924;28;20044;-76
2021/07/29 09:13:09;;;;;;;3.38;0.40;;;17.00;62.60;;;;;;5091123;28;20051;-76
2021/07/29 09:15:38;;;;;;;136.73;9.50;;;17.00;62.00;;;;;;5073668;28;20049;-76
2021/07/29 09:18:06;;;;;;;8.68;1.08;;;17.10;61.80;;;;;;5073995;28;20052;-76
2021/07/29 09:20:35;;;;;;;14.32;1.17;;;17.30;61.00;;;;;;5068972;28;20059;-76
2021/07/29 09:23:15;;;;;;;8.55;1.08;;;17.40;61.40;;;;;;5037295;28;20060;-76
2021/07/29 09:25:46;;;;;;;20.85;1.75;;;17.50;60.20;;;;;;5058214;28;20495;-76
2021/07/29 09:28:34;;;;;;;4.90;0.63;;;17.50;60.40;;;;;;5067865;28;20048;-77
2021/07/29 09:31:22;;;;;;;3.70;0.60;;;17.40;60.70;;;;;;5063237;28;20430;-76
2021/07/29 09:33:55;;;;;;;18.80;1.10;;;17.50;60.50;;;;;;5063489;28;20045;-76
2021/07/29 09:36:23;;;;;;;6.15;0.80;;;17.70;59.70;;;;;;5046804;28;20527;-76
2021/07/29 09:38:51;;;;;;;16.52;1.23;;;17.60;59.10;;;;;;5067077;28;20496;-76
2021/07/29 09:41:27;;;;;;;13.68;1.30;;;17.70;57.80;;;;;;5050248;28;20407;-76
2021/07/29 09:43:55;;;;;;;3.75;0.45;;;17.70;58.50;;;;;;5049735;28;20053;-76
2021/07/29 09:46:24;;;;;;;14.18;1.02;;;17.60;58.00;;;;;;5065198;28;20550;-77
2021/07/29 09:48:53;;;;;;;3.97;0.77;;;17.60;57.10;;;;;;5064078;28;20045;-76
2021/07/29 09:51:22;;;;;;;8.02;0.95;;;17.80;57.10;;;;;;5060610;28;20037;-77
2021/07/29 09:53:52;;;;;;;18.45;1.35;;;17.90;56.40;;;;;;5068914;28;20407;-76
2021/07/29 09:56:20;;;;;;;25.02;1.77;;;18.10;55.60;;;;;;5073565;28;20396;-76
2021/07/29 09:59:07;;;;;;;15.40;0.90;;;18.20;56.30;;;;;;5063522;28;20064;-76
2021/07/29 10:01:35;;;;;;;11.93;1.10;;;18.30;56.30;;;;;;5068275;28;20067;-77
2021/07/29 10:04:06;;;;;;;5.85;0.63;;;18.30;56.90;;;;;;5064445;28;20507;-76
2021/07/29 10:06:40;;;;;;;14.20;1.00;;;18.30;57.60;;;;;;5061937;28;20040;-76
2021/07/29 10:09:12;;;;;;;4.85;0.90;;;18.40;56.70;;;;;;5066686;28;20048;-76
2021/07/29 10:11:48;;;;;;;9.18;1.45;;;18.40;56.10;;;;;;5069017;28;20060;-76
2021/07/29 10:14:48;;;;;;;12.10;0.85;;;18.40;56.20;;;;;;5071370;28;20040;-76
2021/07/29 10:17:16;;;;;;;2.00;0.60;;;18.50;53.50;;;;;;5070641;28;20057;-76
2021/07/29 10:20:12;;;;;;;2.38;0.50;;;18.60;53.80;;;;;;5073532;28;20048;-76
2021/07/29 10:22:41;;;;;;;17.77;1.38;;;18.70;53.80;;;;;;5072119;28;20048;-76
2021/07/29 10:25:09;;;;;;;6.60;0.65;;;18.70;54.30;;;;;;5074144;28;20040;-76
2021/07/29 10:27:37;;;;;;;5.85;0.70;;;18.80;54.00;;;;;;5073260;28;20511;-76
2021/07/29 10:30:20;;;;;;;9.65;1.02;;;18.90;52.30;;;;;;5081152;28;20523;-77
2021/07/29 10:32:53;;;;;;;2.22;0.65;;;18.90;52.60;;;;;;5055235;28;20045;-78
2021/07/29 10:35:29;;;;;;;4.53;0.67;;;18.80;52.50;;;;;;5074475;28;20392;-77
2021/07/29 10:37:58;;;;;;;4.32;0.80;;;18.60;53.40;;;;;;5073730;28;20436;-76
2021/07/29 10:40:34;;;;;;;4.70;1.00;;;18.50;52.40;;;;;;5068221;28;20053;-76
2021/07/29 10:43:24;;;;;;;12.65;1.40;;;18.40;52.70;;;;;;5073885;28;20048;-76
2021/07/29 10:45:53;;;;;;;3.22;0.70;;;18.40;54.00;;;;;;5073531;28;20048;-78
2021/07/29 10:49:16;;;;;;;12.85;1.30;;;18.50;53.50;;;;;;5071901;28;20040;-76
2021/07/29 10:52:08;;;;;;;6.85;1.00;;;18.40;54.00;;;;;;5029042;28;20046;-76
2021/07/29 10:54:38;;;;;;;10.10;1.02;;;18.40;54.20;;;;;;4999215;28;20054;-75
2021/07/29 10:57:07;;;;;;;15.23;1.33;;;18.30;54.60;;;;;;5006046;28;20053;-75
2021/07/29 10:59:36;;;;;;;8.73;1.10;;;18.40;54.10;;;;;;5014768;28;20440;-77
2021/07/29 11:02:10;;;;;;;43.90;2.85;;;18.50;54.00;;;;;;5014185;28;20440;-77
2021/07/29 11:04:56;;;;;;;6.90;1.20;;;18.50;52.70;;;;;;5021470;28;20065;-77
2021/07/29 11:07:25;;;;;;;15.10;1.00;;;18.50;52.60;;;;;;5014158;28;20475;-77
2021/07/29 11:10:10;;;;;;;11.57;1.02;;;18.50;51.90;;;;;;5031285;28;20500;-77
2021/07/29 11:12:40;;;;;;;1.52;0.60;;;18.50;52.00;;;;;;5011869;28;20058;-77
2021/07/29 11:15:09;;;;;;;6.03;0.80;;;18.60;52.20;;;;;;5031213;28;20053;-77
2021/07/29 11:17:37;;;;;;;3.88;0.70;;;18.70;52.30;;;;;;5011561;28;20046;-76
2021/07/29 11:20:08;;;;;;;6.55;0.77;;;19.00;52.40;;;;;;5007319;28;20061;-76
2021/07/29 11:22:48;;;;;;;2.85;0.70;;;19.30;52.10;;;;;;4995601;28;20054;-76
2021/07/29 11:25:16;;;;;;;8.35;1.20;;;19.80;52.10;;;;;;5035826;28;20059;-76
2021/07/29 11:27:44;;;;;;;21.00;1.60;;;19.90;51.70;;;;;;5054357;28;20056;-77
2021/07/29 11:30:12;;;;;;;16.30;1.00;;;20.00;49.70;;;;;;5072998;28;20475;-76
2021/07/29 11:32:44;;;;;;;7.32;1.13;;;19.90;49.30;;;;;;5070511;28;20419;-77
2021/07/29 11:35:18;;;;;;;41.53;2.45;;;19.80;50.00;;;;;;5088980;28;20053;-76
2021/07/29 11:37:47;;;;;;;11.80;0.77;;;19.70;50.00;;;;;;5073067;28;20048;-76
2021/07/29 11:40:22;;;;;;;2.65;0.60;;;19.60;50.80;;;;;;5062557;28;20040;-77
2021/07/29 11:42:55;;;;;;;3.67;0.65;;;19.50;50.10;;;;;;5058557;28;20037;-76
2021/07/29 11:45:32;;;;;;;8.77;1.05;;;19.40;51.10;;;;;;5043599;28;20049;-76
2021/07/29 11:48:01;;;;;;;21.23;1.67;;;19.60;51.10;;;;;;5058229;28;20075;-75
2021/07/29 11:50:40;;;;;;;20.58;1.48;;;19.80;50.70;;;;;;5065771;28;20544;-76
2021/07/29 11:53:09;;;;;;;33.22;2.15;;;20.20;50.50;;;;;;5062998;28;20053;-76
2021/07/29 11:55:39;;;;;;;13.48;1.23;;;20.60;49.40;;;;;;5061839;28;20051;-76
2021/07/29 11:58:15;;;;;;;2.65;0.63;;;20.80;47.90;;;;;;5061462;28;20408;-78
2021/07/29 12:00:46;;;;;;;9.07;0.98;;;20.80;48.00;;;;;;5067856;28;20059;-77
2021/07/29 12:03:48;;;;;;;3.90;0.60;;;20.70;47.40;;;;;;5064087;28;20041;-76
2021/07/29 12:06:19;;;;;;;9.57;0.90;;;20.50;47.30;;;;;;5022299;28;20060;-76
2021/07/29 12:08:49;;;;;;;22.52;1.60;;;20.40;48.20;;;;;;5088170;28;20055;-76
2021/07/29 12:11:20;;;;;;;8.98;0.77;;;20.20;48.20;;;;;;5066776;28;20052;-76
2021/07/29 12:13:49;;;;;;;1.63;0.50;;;19.90;47.80;;;;;;5068573;28;20049;-77
2021/07/29 12:16:46;;;;;;;2.47;0.57;;;19.70;48.50;;;;;;5070293;28;20040;-78
2021/07/29 12:19:14;;;;;;;5.35;0.70;;;19.60;49.70;;;;;;5070560;28;20048;-77
2021/07/29 12:21:44;;;;;;;29.23;2.08;;;19.70;49.60;;;;;;5072067;28;20056;-77
2021/07/29 12:24:12;;;;;;;4.50;0.55;;;19.70;49.00;;;;;;5071611;28;20039;-77
2021/07/29 12:26:41;;;;;;;7.95;0.75;;;19.50;48.90;;;;;;5037047;28;20044;-78
2021/07/29 12:29:10;;;;;;;42.35;2.00;;;19.80;50.30;;;;;;5070913;28;20117;-77
2021/07/29 12:31:45;;;;;;;2.45;0.80;;;20.20;49.50;;;;;;5071139;28;20041;-76
2021/07/29 12:34:13;;;;;;;19.05;1.30;;;20.40;47.70;;;;;;5071771;28;20057;-76
2021/07/29 12:36:50;;;;;;;18.02;1.48;;;20.50;47.40;;;;;;5072050;28;20043;-76
2021/07/29 12:39:32;;;;;;;81.40;3.65;;;20.40;47.20;;;;;;5070647;28;20215;-77
2021/07/29 12:42:24;;;;;;;1.92;0.55;;;20.20;47.80;;;;;;5059355;28;20048;-77
2021/07/29 12:45:08;;;;;;;7.13;0.63;;;20.00;48.60;;;;;;5070378;28;20040;-77
2021/07/29 12:47:35;;;;;;;9.13;0.80;;;19.90;49.20;;;;;;5052833;28;20048;-76
2021/07/29 12:50:07;;;;;;;7.95;0.90;;;19.90;49.20;;;;;;5070717;28;20040;-77
2021/07/29 12:52:35;;;;;;;4.80;0.90;;;19.90;48.60;;;;;;5071704;28;20045;-77
2021/07/29 12:55:09;;;;;;;3.13;0.77;;;19.80;49.00;;;;;;5071617;28;20044;-76
2021/07/29 12:57:51;;;;;;;14.98;1.00;;;19.80;48.70;;;;;;5071245;28;20510;-76
2021/07/29 13:00:23;;;;;;;11.35;1.20;;;19.90;49.60;;;;;;5070265;28;20048;-76
2021/07/29 13:02:51;;;;;;;28.63;1.70;;;19.90;48.80;;;;;;5070872;28;20510;-76